KDFW/DFW METAR and TAF weather

Enter ICAO airport designator
Station Type Date Time Source
KDFW METAR 2021/01/27 13:53 UTC NOAA

KDFW 271353Z 33011KT 7SM CLR 02/M01 A3023 RMK AO2 SLP239 T00221006


Station Type Date Time Source
KDFW Decoded METAR 2021/01/27 13:53 UTC NOAA

DALLAS/FT. WORTH INTERNATIONAL AIRPORT , TX, United States (KDFW) 32-54N 097-02W 174M
Jan 27, 2021 - 08:53 AM EST / 2021.01.27 1353 UTC
Wind: from the NNW (330 degrees) at 13 MPH (11 KT):0
Visibility: 7 mile(s):0
Sky conditions: clear
Temperature: 36.0 F (2.2 C)
Dew Point: 30.9 F (-0.6 C)
Relative Humidity: 81%
Pressure (altimeter): 30.23 in. Hg (1023 hPa)
ob: KDFW 271353Z 33011KT 7SM CLR 02/M01 A3023 RMK AO2 SLP239 T00221006
cycle: 14

Station Type Date Time Source
KDFW TAF 2021/01/27 12:42 UTC NOAA

TAF KDFW 271139Z 2712/2818 33014KT P6SM SCT120
FM280200 01007KT P6SM SKC

Example: see airport list